createdAt,value
2017-12-19T00:02:01.726Z,-2.50
2017-12-19T00:04:29.391Z,-2.50
2017-12-19T00:06:57.027Z,-2.50
2017-12-19T00:09:24.692Z,-2.40
2017-12-19T00:11:52.349Z,-2.30
2017-12-19T00:14:19.985Z,-2.20
2017-12-19T00:16:47.646Z,-2.20
2017-12-19T00:19:15.278Z,-2.30
2017-12-19T00:21:42.946Z,-2.20
2017-12-19T00:24:10.656Z,-2.20
2017-12-19T00:26:38.291Z,-2.20
2017-12-19T00:29:05.954Z,-2.20
2017-12-19T00:31:33.612Z,-2.20
2017-12-19T00:34:01.273Z,-2.10
2017-12-19T00:36:28.890Z,-2.00
2017-12-19T00:38:56.763Z,-2.20
2017-12-19T00:41:24.509Z,-2.20
2017-12-19T00:43:54.373Z,-2.20
2017-12-19T00:46:22.069Z,-2.10
2017-12-19T00:48:49.707Z,-2.10
2017-12-19T00:51:17.376Z,-2.00
2017-12-19T00:53:45.038Z,-2.00
2017-12-19T00:56:12.694Z,-2.00
2017-12-19T00:58:40.376Z,-2.00
2017-12-19T01:01:08.014Z,-1.90
2017-12-19T01:03:35.651Z,-1.90
2017-12-19T01:06:03.312Z,-1.90
2017-12-19T01:08:30.947Z,-1.90
2017-12-19T01:10:58.610Z,-1.90
2017-12-19T01:13:26.275Z,-1.90
2017-12-19T01:15:53.915Z,-1.90
2017-12-19T01:18:21.578Z,-1.90
2017-12-19T01:20:49.210Z,-1.90
2017-12-19T01:23:16.897Z,-1.90
2017-12-19T01:25:45.293Z,-1.70
2017-12-19T01:28:13.013Z,-1.80
2017-12-19T01:30:41.455Z,-1.70
2017-12-19T01:33:10.539Z,-1.80
2017-12-19T01:35:38.204Z,-1.80
2017-12-19T01:38:06.634Z,-1.70
2017-12-19T01:40:34.282Z,-1.80
2017-12-19T01:43:01.942Z,-1.80
2017-12-19T01:45:30.381Z,-1.80
2017-12-19T01:47:58.035Z,-1.80
2017-12-19T01:50:25.658Z,-1.80
2017-12-19T01:52:53.273Z,-1.80
2017-12-19T01:55:21.691Z,-1.70
2017-12-19T01:57:49.313Z,-1.80
2017-12-19T02:00:16.974Z,-1.70
2017-12-19T02:02:44.621Z,-1.70
2017-12-19T02:05:12.259Z,-1.60
2017-12-19T02:07:39.923Z,-1.70
2017-12-19T02:10:07.583Z,-1.70
2017-12-19T02:12:35.246Z,-1.70
2017-12-19T02:15:02.870Z,-1.60
2017-12-19T02:17:30.485Z,-1.60
2017-12-19T02:19:58.151Z,-1.60
2017-12-19T02:22:25.810Z,-1.60
2017-12-19T02:24:53.473Z,-1.60
2017-12-19T02:27:21.115Z,-1.50
2017-12-19T02:29:48.745Z,-1.50
2017-12-19T02:32:16.425Z,-1.60
2017-12-19T02:34:44.826Z,-1.60
2017-12-19T02:37:12.481Z,-1.60
2017-12-19T02:39:40.106Z,-1.60
2017-12-19T02:42:07.728Z,-1.60
2017-12-19T02:44:35.378Z,-1.60
2017-12-19T02:47:03.769Z,-1.50
2017-12-19T02:49:31.437Z,-1.50
2017-12-19T02:51:59.079Z,-1.40
2017-12-19T02:54:26.717Z,-1.50
2017-12-19T02:56:54.372Z,-1.40
2017-12-19T02:59:22.055Z,-1.40
2017-12-19T03:01:49.702Z,-1.50
2017-12-19T03:04:17.333Z,-1.50
2017-12-19T03:06:51.482Z,-1.50
2017-12-19T03:09:19.132Z,-1.50
2017-12-19T03:11:46.776Z,-1.40
2017-12-19T03:14:14.532Z,-1.40
2017-12-19T03:16:42.146Z,-1.40
2017-12-19T03:19:09.807Z,-1.40
2017-12-19T03:21:37.449Z,-1.40
2017-12-19T03:24:05.854Z,-1.40
2017-12-19T03:26:33.510Z,-1.50
2017-12-19T03:29:01.146Z,-1.40
2017-12-19T03:31:28.809Z,-1.40
2017-12-19T03:33:56.476Z,-1.40
2017-12-19T03:36:24.108Z,-1.30
2017-12-19T03:38:51.766Z,-1.40
2017-12-19T03:41:19.449Z,-1.40
2017-12-19T03:43:47.110Z,-1.30
2017-12-19T03:46:14.750Z,-1.30
2017-12-19T03:48:42.390Z,-1.30
2017-12-19T03:51:10.041Z,-1.30
2017-12-19T03:53:38.431Z,-1.30
2017-12-19T03:56:06.094Z,-1.40
2017-12-19T03:58:33.722Z,-1.30
2017-12-19T04:01:01.346Z,-1.30
2017-12-19T04:03:29.001Z,-1.20
2017-12-19T04:05:56.634Z,-1.20
2017-12-19T04:08:24.298Z,-1.20
2017-12-19T04:10:52.049Z,-1.30
2017-12-19T04:13:19.681Z,-1.20
2017-12-19T04:15:47.332Z,-1.30
2017-12-19T04:18:14.994Z,-1.30
2017-12-19T04:20:42.655Z,-1.30
2017-12-19T04:23:10.290Z,-1.30
2017-12-19T04:25:37.929Z,-1.30
2017-12-19T04:28:05.595Z,-1.30
2017-12-19T04:30:33.223Z,-1.30
2017-12-19T04:33:00.896Z,-1.20
2017-12-19T04:35:28.529Z,-1.20
2017-12-19T04:37:56.186Z,-1.20
2017-12-19T04:40:23.974Z,-1.20
2017-12-19T04:42:52.379Z,-1.10
2017-12-19T04:45:20.066Z,-1.20
2017-12-19T04:47:47.957Z,-1.10
2017-12-19T04:50:16.354Z,-1.20
2017-12-19T04:52:44.131Z,-1.20
2017-12-19T04:55:12.715Z,-1.20
2017-12-19T04:57:40.414Z,-1.20
2017-12-19T05:00:08.045Z,-1.20
2017-12-19T05:02:35.677Z,-1.10
2017-12-19T05:05:03.350Z,-1.20
2017-12-19T05:07:31.011Z,-1.20
2017-12-19T05:09:58.674Z,-1.20
2017-12-19T05:12:26.313Z,-1.10
2017-12-19T05:14:53.976Z,-1.10
2017-12-19T05:17:21.646Z,-1.10
2017-12-19T05:19:50.049Z,-1.20
2017-12-19T05:22:17.864Z,-1.20
2017-12-19T05:24:46.272Z,-1.10
2017-12-19T05:27:14.156Z,-1.20
2017-12-19T05:29:41.910Z,-1.10
2017-12-19T05:32:09.571Z,-1.10
2017-12-19T05:34:37.238Z,-0.90
2017-12-19T05:37:04.899Z,-1.00
2017-12-19T05:39:32.537Z,-1.10
2017-12-19T05:42:00.197Z,-1.00
2017-12-19T05:44:27.827Z,-1.00
2017-12-19T05:46:55.486Z,-0.90
2017-12-19T05:49:23.129Z,-0.90
2017-12-19T05:51:50.766Z,-0.80
2017-12-19T05:54:18.502Z,-0.80
2017-12-19T05:56:46.954Z,-0.80
2017-12-19T05:59:14.671Z,-0.80
2017-12-19T06:01:42.306Z,-0.80
2017-12-19T06:04:09.963Z,-0.80
2017-12-19T06:06:37.650Z,-0.70
2017-12-19T06:09:05.291Z,-0.70
2017-12-19T06:11:33.814Z,-0.70
2017-12-19T06:14:01.447Z,-0.80
2017-12-19T06:16:29.138Z,-0.70
2017-12-19T06:18:56.782Z,-0.70
2017-12-19T06:21:24.452Z,-0.60
2017-12-19T06:23:52.875Z,-0.60
2017-12-19T06:26:21.589Z,-0.70
2017-12-19T06:28:49.271Z,-0.60
2017-12-19T06:31:16.923Z,-0.60
2017-12-19T06:33:44.569Z,-0.60
2017-12-19T06:36:12.267Z,-0.60
2017-12-19T06:38:40.404Z,-0.60
2017-12-19T06:41:08.073Z,-0.60
2017-12-19T06:43:35.798Z,-0.60
2017-12-19T06:46:03.437Z,-0.70
2017-12-19T06:48:31.110Z,-0.60
2017-12-19T06:50:58.738Z,-0.60
2017-12-19T06:53:26.403Z,-0.60
2017-12-19T06:55:54.821Z,-0.50
2017-12-19T06:58:22.465Z,-0.50
2017-12-19T07:00:50.140Z,-0.40
2017-12-19T07:03:17.774Z,-0.40
2017-12-19T07:05:45.449Z,-0.30
2017-12-19T07:08:13.088Z,-0.40
2017-12-19T07:10:40.747Z,-0.40
2017-12-19T07:13:08.408Z,-0.40
2017-12-19T07:15:36.051Z,-0.40
2017-12-19T07:18:04.482Z,-0.30
2017-12-19T07:20:32.110Z,-0.40
2017-12-19T07:22:59.749Z,-0.40
2017-12-19T07:25:27.418Z,-0.40
2017-12-19T07:27:55.057Z,-0.50
2017-12-19T07:30:22.717Z,-0.40
2017-12-19T07:32:50.347Z,-0.40
2017-12-19T07:35:17.974Z,-0.40
2017-12-19T07:37:45.697Z,-0.40
2017-12-19T07:40:13.329Z,-0.40
2017-12-19T07:42:41.756Z,-0.30
2017-12-19T07:45:09.385Z,-0.30
2017-12-19T07:47:37.011Z,-0.30
2017-12-19T07:50:04.710Z,-0.20
2017-12-19T07:52:32.335Z,-0.20
2017-12-19T07:54:59.990Z,-0.20
2017-12-19T07:57:27.615Z,-0.20
2017-12-19T07:59:55.264Z,-0.10
2017-12-19T08:02:22.918Z,-0.10
2017-12-19T08:04:50.545Z,-0.10
2017-12-19T08:07:18.208Z,-0.10
2017-12-19T08:09:45.842Z,-0.10
2017-12-19T08:12:13.517Z,-0.10
2017-12-19T08:14:41.175Z,0.00
2017-12-19T08:17:08.822Z,0.00
2017-12-19T08:19:36.508Z,0.10
2017-12-19T08:22:04.138Z,0.10
2017-12-19T08:24:31.761Z,0.10
2017-12-19T08:26:59.429Z,0.10
2017-12-19T08:29:27.046Z,0.20
2017-12-19T08:31:54.709Z,0.30
2017-12-19T08:34:23.130Z,0.40
2017-12-19T08:36:50.755Z,0.30
2017-12-19T08:39:19.174Z,0.40
2017-12-19T08:41:46.811Z,0.40
2017-12-19T08:44:14.485Z,0.50
2017-12-19T08:46:42.137Z,0.50
2017-12-19T08:49:09.767Z,0.60
2017-12-19T08:51:37.431Z,0.60
2017-12-19T08:54:05.070Z,0.50
2017-12-19T08:56:32.732Z,0.50
2017-12-19T08:59:00.362Z,0.60
2017-12-19T09:01:27.989Z,0.50
2017-12-19T09:03:55.642Z,0.60
2017-12-19T09:06:23.274Z,0.60
2017-12-19T09:08:50.913Z,0.60
2017-12-19T09:11:18.541Z,0.60
2017-12-19T09:13:46.214Z,0.70
2017-12-19T09:16:13.833Z,0.60
2017-12-19T09:18:41.456Z,0.70
2017-12-19T09:21:09.891Z,0.80
2017-12-19T09:23:37.551Z,0.70
2017-12-19T09:26:05.178Z,0.80
2017-12-19T09:28:32.843Z,0.80
2017-12-19T09:31:00.470Z,0.80
2017-12-19T09:33:28.128Z,0.90
2017-12-19T09:35:55.760Z,0.90
2017-12-19T09:38:23.383Z,1.00
2017-12-19T09:40:51.077Z,1.00
2017-12-19T09:43:18.690Z,1.00
2017-12-19T09:45:46.350Z,1.10
2017-12-19T09:48:13.973Z,1.10
2017-12-19T09:50:42.364Z,1.20
2017-12-19T09:53:10.014Z,1.20
2017-12-19T09:55:37.650Z,1.20
2017-12-19T09:58:05.272Z,1.20
2017-12-19T10:00:32.935Z,1.30
2017-12-19T10:03:00.552Z,1.30
2017-12-19T10:05:28.194Z,1.40
2017-12-19T10:07:55.907Z,1.40
2017-12-19T10:10:23.526Z,1.50
2017-12-19T10:12:51.158Z,1.50
2017-12-19T10:15:19.064Z,1.50
2017-12-19T10:17:46.684Z,1.50
2017-12-19T10:20:14.347Z,1.50
2017-12-19T10:22:42.008Z,1.60
2017-12-19T10:25:10.510Z,1.70
2017-12-19T10:27:38.151Z,1.60
2017-12-19T10:30:05.795Z,1.50
2017-12-19T10:32:33.421Z,1.50
2017-12-19T10:35:01.069Z,1.50
2017-12-19T10:37:28.793Z,1.50
2017-12-19T10:39:56.382Z,1.50
2017-12-19T10:42:24.017Z,1.60
2017-12-19T10:44:51.678Z,1.60
2017-12-19T10:47:19.291Z,1.60
2017-12-19T10:49:47.682Z,1.50
2017-12-19T10:52:15.325Z,1.50
2017-12-19T10:54:42.993Z,1.50
2017-12-19T10:57:10.637Z,1.50
2017-12-19T10:59:38.293Z,1.50
2017-12-19T11:02:05.951Z,1.50
2017-12-19T11:04:33.585Z,1.60
2017-12-19T11:07:01.247Z,1.60
2017-12-19T11:09:28.881Z,1.60
2017-12-19T11:11:56.518Z,1.70
2017-12-19T11:14:24.182Z,1.70
2017-12-19T11:16:51.900Z,1.70
2017-12-19T11:19:19.570Z,1.80
2017-12-19T11:21:47.185Z,1.80
2017-12-19T11:24:14.898Z,1.90
2017-12-19T11:26:42.550Z,1.90
2017-12-19T11:29:10.201Z,1.80
2017-12-19T11:31:38.652Z,1.90
2017-12-19T11:34:06.277Z,1.80
2017-12-19T11:36:33.967Z,1.90
2017-12-19T11:39:01.650Z,1.80
2017-12-19T11:41:29.269Z,1.80
2017-12-19T11:43:58.660Z,1.80
2017-12-19T11:46:26.290Z,1.80
2017-12-19T11:48:54.694Z,1.90
2017-12-19T11:51:22.359Z,1.80
2017-12-19T11:53:50.025Z,2.00
2017-12-19T11:56:17.681Z,1.90
2017-12-19T11:58:45.318Z,1.90
2017-12-19T12:01:12.960Z,1.80
2017-12-19T12:03:40.658Z,1.80
2017-12-19T12:06:08.290Z,1.80
2017-12-19T12:08:36.710Z,1.90
2017-12-19T12:11:04.339Z,1.80
2017-12-19T12:13:31.958Z,1.80
2017-12-19T12:15:59.602Z,1.80
2017-12-19T12:18:27.994Z,1.80
2017-12-19T12:20:55.654Z,1.80
2017-12-19T12:23:23.282Z,1.80
2017-12-19T12:25:50.898Z,1.70
2017-12-19T12:28:19.328Z,1.80
2017-12-19T12:30:46.943Z,1.80
2017-12-19T12:33:14.626Z,1.80
2017-12-19T12:35:42.258Z,1.80
2017-12-19T12:38:09.898Z,1.90
2017-12-19T12:40:37.559Z,1.90
2017-12-19T12:43:05.196Z,1.80
2017-12-19T12:45:32.903Z,1.90
2017-12-19T12:48:00.520Z,1.90
2017-12-19T12:50:28.155Z,2.00
2017-12-19T12:52:55.813Z,2.00
2017-12-19T12:55:24.271Z,2.00
2017-12-19T12:57:51.929Z,1.90
2017-12-19T13:00:20.318Z,1.90
2017-12-19T13:02:47.974Z,1.90
2017-12-19T13:05:15.625Z,1.90
2017-12-19T13:07:43.245Z,2.00
2017-12-19T13:10:10.904Z,2.00
2017-12-19T13:12:38.539Z,2.00
2017-12-19T13:15:06.954Z,2.00
2017-12-19T13:17:34.616Z,2.00
2017-12-19T13:20:02.261Z,2.10
2017-12-19T13:22:29.914Z,2.10
2017-12-19T13:24:57.558Z,2.10
2017-12-19T13:27:25.194Z,2.00
2017-12-19T13:29:52.929Z,2.10
2017-12-19T13:32:20.570Z,2.00
2017-12-19T13:34:48.228Z,2.00
2017-12-19T13:37:15.840Z,2.00
2017-12-19T13:39:43.454Z,2.00
2017-12-19T13:42:11.114Z,2.00
2017-12-19T13:44:38.779Z,1.90
2017-12-19T13:47:06.433Z,1.90
2017-12-19T13:49:34.054Z,1.80
2017-12-19T13:52:02.438Z,1.80
2017-12-19T13:54:30.092Z,1.80
2017-12-19T13:56:57.712Z,1.70
2017-12-19T13:59:26.270Z,1.70
2017-12-19T14:01:53.899Z,1.70
2017-12-19T14:04:21.568Z,1.70
2017-12-19T14:06:49.221Z,1.70
2017-12-19T14:09:17.657Z,1.60
2017-12-19T14:11:45.323Z,1.50
2017-12-19T14:14:13.735Z,1.50
2017-12-19T14:16:41.396Z,1.50
2017-12-19T14:19:09.053Z,1.60
2017-12-19T14:21:37.517Z,1.60
2017-12-19T14:24:05.210Z,1.50
2017-12-19T14:26:32.894Z,1.50
2017-12-19T14:29:00.525Z,1.50
2017-12-19T14:31:28.246Z,1.50
2017-12-19T14:33:56.103Z,1.40
2017-12-19T14:36:23.763Z,1.40
2017-12-19T14:38:51.378Z,1.50
2017-12-19T14:41:18.998Z,1.40
2017-12-19T14:43:46.703Z,1.50
2017-12-19T14:46:14.833Z,1.40
2017-12-19T14:48:42.741Z,1.40
2017-12-19T14:51:10.366Z,1.50
2017-12-19T14:53:38.066Z,1.50
2017-12-19T14:56:05.937Z,1.50
2017-12-19T14:58:33.618Z,1.60
2017-12-19T15:01:01.279Z,1.50
2017-12-19T15:03:28.922Z,1.50
2017-12-19T15:05:56.602Z,1.50
2017-12-19T15:08:25.187Z,1.50
2017-12-19T15:10:52.816Z,1.50
2017-12-19T15:13:20.478Z,1.60
2017-12-19T15:15:51.762Z,1.50
2017-12-19T15:18:19.395Z,1.40
2017-12-19T15:20:47.202Z,1.50
2017-12-19T15:23:14.841Z,1.50
2017-12-19T15:25:42.502Z,1.50
2017-12-19T15:28:10.264Z,1.50
2017-12-19T15:30:38.670Z,1.50
2017-12-19T15:33:06.357Z,1.50
2017-12-19T15:35:34.006Z,1.50
2017-12-19T15:38:01.661Z,1.50
2017-12-19T15:40:29.286Z,1.50
2017-12-19T15:42:57.075Z,1.50
2017-12-19T15:45:24.726Z,1.50
2017-12-19T15:47:52.891Z,1.50
2017-12-19T15:50:20.550Z,1.60
2017-12-19T15:52:48.929Z,1.50
2017-12-19T15:55:17.123Z,1.40
2017-12-19T15:57:44.842Z,1.40
2017-12-19T16:00:12.455Z,1.40
2017-12-19T16:02:40.114Z,1.30
2017-12-19T16:05:07.957Z,1.40
2017-12-19T16:07:37.256Z,1.40
2017-12-19T16:10:04.916Z,1.40
2017-12-19T16:12:34.019Z,1.30
2017-12-19T16:15:05.011Z,1.40
2017-12-19T16:17:34.579Z,1.30
2017-12-19T16:22:38.710Z,1.30
2017-12-19T16:25:06.370Z,1.30
2017-12-19T16:27:49.244Z,1.30
2017-12-19T16:30:18.283Z,1.30
2017-12-19T17:15:07.154Z,1.30
2017-12-19T17:17:37.184Z,1.20
2017-12-19T17:20:05.808Z,1.20
2017-12-19T17:22:33.698Z,1.30
2017-12-19T17:25:01.910Z,1.20
2017-12-19T17:27:29.575Z,1.20
2017-12-19T17:29:57.212Z,1.20
2017-12-19T17:32:24.837Z,1.20
2017-12-19T17:34:52.506Z,1.20
2017-12-19T17:37:20.127Z,1.20
2017-12-19T17:39:48.710Z,1.30
2017-12-19T17:42:16.382Z,1.20
2017-12-19T17:44:44.015Z,1.30
2017-12-19T17:47:11.667Z,1.30
2017-12-19T17:49:39.291Z,1.40
2017-12-19T17:52:07.034Z,1.50
2017-12-19T17:54:35.026Z,1.40
2017-12-19T17:57:02.662Z,1.40
2017-12-19T17:59:30.324Z,1.50
2017-12-19T18:01:58.722Z,1.50
2017-12-19T18:04:28.250Z,1.50
2017-12-19T18:06:56.096Z,1.50
2017-12-19T18:09:23.838Z,1.50
2017-12-19T18:11:51.502Z,1.50
2017-12-19T18:14:19.238Z,1.50
2017-12-19T18:16:47.049Z,1.40
2017-12-19T18:19:14.665Z,1.40
2017-12-19T18:21:43.050Z,1.50
2017-12-19T18:24:10.703Z,1.50
2017-12-19T18:26:38.337Z,1.60
2017-12-19T18:29:06.006Z,1.50
2017-12-19T18:31:33.666Z,1.50
2017-12-19T18:34:01.294Z,1.50
2017-12-19T18:36:29.570Z,1.50
2017-12-19T18:38:57.546Z,1.50
2017-12-19T18:41:29.014Z,1.40
2017-12-19T18:43:57.624Z,1.50
2017-12-19T18:46:25.257Z,1.40
2017-12-19T18:48:52.921Z,1.40
2017-12-19T18:51:20.655Z,1.40
2017-12-19T18:53:48.344Z,1.40
2017-12-19T18:56:16.025Z,1.40
2017-12-19T18:58:43.726Z,1.50
2017-12-19T19:01:11.387Z,1.50
2017-12-19T19:03:39.017Z,1.50
2017-12-19T19:06:06.746Z,1.40
2017-12-19T19:08:34.390Z,1.50
2017-12-19T19:11:02.035Z,1.50
2017-12-19T19:13:30.125Z,1.50
2017-12-19T19:15:57.947Z,1.50
2017-12-19T19:18:25.603Z,1.60
2017-12-19T19:20:53.220Z,1.60
2017-12-19T19:23:20.913Z,1.70
2017-12-19T19:25:48.571Z,1.70
2017-12-19T19:28:16.209Z,1.70
2017-12-19T19:30:44.099Z,1.70
2017-12-19T19:33:11.740Z,1.70
2017-12-19T19:35:39.406Z,1.70
2017-12-19T19:38:07.190Z,1.70
2017-12-19T19:40:34.833Z,1.60
2017-12-19T19:43:02.478Z,1.60
2017-12-19T19:45:30.112Z,1.60
2017-12-19T19:47:57.820Z,1.60
2017-12-19T19:50:26.258Z,1.60
2017-12-19T19:52:53.943Z,1.60
2017-12-19T19:55:21.603Z,1.60
2017-12-19T19:57:49.240Z,1.70
2017-12-19T20:00:18.346Z,1.70
2017-12-19T20:02:46.015Z,1.70
2017-12-19T20:05:13.782Z,1.70
2017-12-19T20:07:42.136Z,1.70
2017-12-19T20:10:10.601Z,1.80
2017-12-19T20:12:38.388Z,1.70
2017-12-19T20:15:06.899Z,1.70
2017-12-19T20:17:34.629Z,1.70
2017-12-19T20:20:02.334Z,1.70
2017-12-19T20:22:30.014Z,1.70
2017-12-19T20:24:57.645Z,1.70
2017-12-19T20:27:26.287Z,1.80
2017-12-19T20:29:55.208Z,1.70
2017-12-19T20:32:24.081Z,1.80
2017-12-19T20:34:51.821Z,1.80
2017-12-19T20:37:20.218Z,1.90
2017-12-19T20:39:47.923Z,1.80
2017-12-19T20:42:16.647Z,1.90
2017-12-19T20:44:44.303Z,1.90
2017-12-19T20:47:13.663Z,1.90
2017-12-19T20:49:41.295Z,1.90
2017-12-19T20:52:10.026Z,1.90
2017-12-19T20:54:37.844Z,1.80
2017-12-19T20:57:05.646Z,1.90
2017-12-19T20:59:34.053Z,2.00
2017-12-19T21:02:01.675Z,1.90
2017-12-19T21:04:29.343Z,2.00
2017-12-19T21:06:57.102Z,2.00
2017-12-19T21:09:24.794Z,2.10
2017-12-19T21:11:52.423Z,2.00
2017-12-19T21:14:20.042Z,2.10
2017-12-19T21:16:47.742Z,2.20
2017-12-19T21:19:15.363Z,2.20
2017-12-19T21:21:43.018Z,2.20
2017-12-19T21:24:11.753Z,2.10
2017-12-19T21:26:40.761Z,2.10
2017-12-19T21:29:08.604Z,2.10
2017-12-19T21:31:38.136Z,2.20
2017-12-19T21:34:07.262Z,2.10
2017-12-19T21:36:34.931Z,2.00
2017-12-19T21:39:02.617Z,2.10
2017-12-19T21:41:31.047Z,2.10
2017-12-19T21:43:58.774Z,2.10
2017-12-19T21:46:26.632Z,2.10
2017-12-19T21:48:54.262Z,2.10
2017-12-19T21:51:22.087Z,2.10
2017-12-19T21:53:49.780Z,2.10
2017-12-19T21:56:17.412Z,2.10
2017-12-19T21:58:45.062Z,2.10
2017-12-19T22:01:12.709Z,2.20
2017-12-19T22:03:40.346Z,2.10
2017-12-19T22:06:08.100Z,2.10
2017-12-19T22:08:35.713Z,2.10
2017-12-19T22:11:03.374Z,2.00
2017-12-19T22:13:31.004Z,1.90
2017-12-19T22:15:59.396Z,1.80
2017-12-19T22:18:27.221Z,1.80
2017-12-19T22:20:54.850Z,1.80
2017-12-19T22:23:23.269Z,1.70
2017-12-19T22:25:50.890Z,1.70
2017-12-19T22:28:18.553Z,1.80
2017-12-19T22:30:46.220Z,1.70
2017-12-19T22:33:13.854Z,1.70
2017-12-19T22:35:41.502Z,1.70
2017-12-19T22:38:09.178Z,1.70
2017-12-19T22:40:36.978Z,1.70
2017-12-19T22:43:04.638Z,1.60
2017-12-19T22:45:32.262Z,1.70
2017-12-19T22:47:59.913Z,1.60
2017-12-19T22:50:27.693Z,1.60
2017-12-19T22:52:55.350Z,1.50
2017-12-19T22:55:22.970Z,1.50
2017-12-19T22:57:50.640Z,1.50
2017-12-19T23:00:18.294Z,1.40
2017-12-19T23:02:46.028Z,1.40
2017-12-19T23:05:14.570Z,1.40
2017-12-19T23:07:42.205Z,1.40
2017-12-19T23:50:50.395Z,1.50
2017-12-19T23:53:18.030Z,1.40
2017-12-19T23:55:45.690Z,1.40
2017-12-19T23:58:13.314Z,1.40
